createdAt,value
2018-11-21T00:00:56.428Z,0
2018-11-21T00:01:57.027Z,0
2018-11-21T00:02:57.627Z,0
2018-11-21T00:03:58.213Z,0
2018-11-21T00:04:58.811Z,0
2018-11-21T00:05:59.421Z,0
2018-11-21T00:07:00.020Z,0
2018-11-21T00:08:00.618Z,0
2018-11-21T00:09:01.206Z,0
2018-11-21T00:10:01.808Z,0
2018-11-21T00:11:02.395Z,0
2018-11-21T00:12:02.980Z,0
2018-11-21T00:13:03.574Z,0
2018-11-21T00:14:04.164Z,0
2018-11-21T00:15:04.757Z,0
2018-11-21T00:16:05.351Z,0
2018-11-21T00:17:05.942Z,0
2018-11-21T00:18:06.533Z,0
2018-11-21T00:19:07.125Z,0
2018-11-21T00:20:07.719Z,0
2018-11-21T00:21:08.313Z,0
2018-11-21T00:22:08.897Z,0
2018-11-21T00:23:09.487Z,0
2018-11-21T00:24:10.079Z,0
2018-11-21T00:25:10.664Z,0
2018-11-21T00:26:11.253Z,0
2018-11-21T00:27:11.833Z,0
2018-11-21T00:28:12.428Z,0
2018-11-21T00:29:13.009Z,0
2018-11-21T00:30:13.605Z,0
2018-11-21T00:31:14.191Z,0
2018-11-21T00:32:14.777Z,0
2018-11-21T00:33:15.364Z,0
2018-11-21T00:34:15.948Z,0
2018-11-21T00:35:16.557Z,0
2018-11-21T00:36:17.137Z,0
2018-11-21T00:37:17.730Z,0
2018-11-21T00:38:18.313Z,0
2018-11-21T00:39:18.909Z,0
2018-11-21T00:40:19.505Z,0
2018-11-21T00:41:20.096Z,0
2018-11-21T00:42:20.683Z,0
2018-11-21T00:43:21.273Z,0
2018-11-21T00:44:21.868Z,0
2018-11-21T00:45:22.461Z,0
2018-11-21T00:46:23.047Z,0
2018-11-21T00:47:23.631Z,0
2018-11-21T00:48:24.421Z,0
2018-11-21T00:49:25.009Z,0
2018-11-21T00:50:25.602Z,0
2018-11-21T00:51:26.190Z,0
2018-11-21T00:52:26.776Z,0
2018-11-21T00:53:27.358Z,0
2018-11-21T00:54:27.946Z,0
2018-11-21T00:55:28.538Z,0
2018-11-21T00:56:29.131Z,0
2018-11-21T00:57:29.726Z,0
2018-11-21T00:58:30.319Z,0
2018-11-21T00:59:30.918Z,0
2018-11-21T01:00:31.507Z,0
2018-11-21T01:01:32.119Z,0
2018-11-21T01:02:32.733Z,0
2018-11-21T01:03:33.315Z,0
2018-11-21T01:04:33.934Z,0
2018-11-21T01:05:34.499Z,0
2018-11-21T01:06:35.087Z,0
2018-11-21T01:07:35.679Z,0
2018-11-21T01:08:36.269Z,0
2018-11-21T01:09:36.869Z,0
2018-11-21T01:10:37.454Z,0
2018-11-21T01:11:38.038Z,0
2018-11-21T01:12:38.630Z,0
2018-11-21T01:13:39.225Z,0
2018-11-21T01:14:39.813Z,0
2018-11-21T01:15:40.430Z,0
2018-11-21T01:16:41.004Z,0
2018-11-21T01:17:41.594Z,0
2018-11-21T01:18:42.184Z,0
2018-11-21T01:19:42.781Z,0
2018-11-21T01:20:43.363Z,0
2018-11-21T01:21:43.956Z,0
2018-11-21T01:22:44.544Z,0
2018-11-21T01:23:45.138Z,0
2018-11-21T01:24:45.723Z,0
2018-11-21T01:25:46.312Z,0
2018-11-21T01:26:46.905Z,0
2018-11-21T01:27:47.505Z,0
2018-11-21T01:28:48.084Z,0
2018-11-21T01:29:48.673Z,0
2018-11-21T01:30:49.258Z,0
2018-11-21T01:31:49.857Z,0
2018-11-21T01:32:50.450Z,0
2018-11-21T01:33:51.035Z,0
2018-11-21T01:34:51.630Z,0
2018-11-21T01:35:52.227Z,0
2018-11-21T01:36:52.821Z,0
2018-11-21T01:37:53.424Z,0
2018-11-21T01:38:54.013Z,0
2018-11-21T01:39:54.608Z,0
2018-11-21T01:40:55.199Z,0
2018-11-21T01:41:55.797Z,0
2018-11-21T01:42:56.418Z,0
2018-11-21T01:43:56.981Z,0
2018-11-21T01:44:57.578Z,0
2018-11-21T01:45:58.177Z,0
2018-11-21T01:46:58.763Z,0
2018-11-21T01:47:59.364Z,0
2018-11-21T01:48:59.953Z,0
2018-11-21T01:50:00.547Z,0
2018-11-21T01:51:01.143Z,0
2018-11-21T01:52:01.747Z,0
2018-11-21T01:53:02.333Z,0
2018-11-21T01:54:02.927Z,0
2018-11-21T01:55:03.518Z,0
2018-11-21T01:56:04.114Z,0
2018-11-21T01:57:04.720Z,0
2018-11-21T01:58:05.307Z,0
2018-11-21T01:59:05.905Z,0
2018-11-21T02:00:06.501Z,0
2018-11-21T02:01:07.093Z,0
2018-11-21T02:02:07.691Z,0
2018-11-21T02:03:08.277Z,0
2018-11-21T02:04:08.869Z,0
2018-11-21T02:05:09.468Z,0
2018-11-21T02:06:10.052Z,0
2018-11-21T02:07:10.648Z,0
2018-11-21T02:08:11.241Z,0
2018-11-21T02:09:11.835Z,0
2018-11-21T02:10:12.423Z,0
2018-11-21T02:11:13.016Z,0
2018-11-21T02:12:13.608Z,0
2018-11-21T02:13:14.212Z,0
2018-11-21T02:14:14.795Z,0
2018-11-21T02:15:15.386Z,0
2018-11-21T02:16:15.966Z,0
2018-11-21T02:17:16.552Z,0
2018-11-21T02:18:17.146Z,0
2018-11-21T02:19:17.740Z,0
2018-11-21T02:20:18.337Z,0
2018-11-21T02:21:18.939Z,0
2018-11-21T02:22:19.528Z,0
2018-11-21T02:23:20.113Z,0
2018-11-21T02:24:20.709Z,0
2018-11-21T02:25:21.299Z,0
2018-11-21T02:26:21.887Z,0
2018-11-21T02:27:22.490Z,0
2018-11-21T02:28:23.073Z,0
2018-11-21T02:29:23.689Z,0
2018-11-21T02:30:24.257Z,0
2018-11-21T02:31:24.856Z,0
2018-11-21T02:32:25.444Z,0
2018-11-21T02:33:26.037Z,0
2018-11-21T02:34:26.623Z,0
2018-11-21T02:35:27.221Z,0
2018-11-21T02:36:27.811Z,0
2018-11-21T02:37:28.398Z,0
2018-11-21T02:38:28.993Z,0
2018-11-21T02:39:29.610Z,0
2018-11-21T02:40:30.181Z,0
2018-11-21T02:41:30.764Z,0
2018-11-21T02:42:31.353Z,0
2018-11-21T02:43:31.946Z,0
2018-11-21T02:44:32.542Z,0
2018-11-21T02:45:33.128Z,0
2018-11-21T02:46:33.716Z,0
2018-11-21T02:47:34.315Z,0
2018-11-21T02:48:34.909Z,0
2018-11-21T02:49:35.500Z,0
2018-11-21T02:50:36.092Z,0
2018-11-21T02:51:36.690Z,0
2018-11-21T02:52:37.274Z,0
2018-11-21T02:53:37.870Z,0
2018-11-21T02:54:38.465Z,0
2018-11-21T02:55:39.053Z,0
2018-11-21T02:56:39.660Z,0
2018-11-21T02:57:40.228Z,0
2018-11-21T02:58:40.821Z,0
2018-11-21T02:59:41.410Z,0
2018-11-21T03:00:42.002Z,0
2018-11-21T03:01:42.597Z,0
2018-11-21T03:02:43.188Z,0
2018-11-21T03:03:43.777Z,0
2018-11-21T03:04:44.366Z,0
2018-11-21T03:05:44.956Z,0
2018-11-21T03:06:45.553Z,0
2018-11-21T03:07:46.142Z,0
2018-11-21T03:08:46.734Z,0
2018-11-21T03:09:47.321Z,0
2018-11-21T03:10:47.916Z,0
2018-11-21T03:11:48.501Z,0
2018-11-21T03:12:49.086Z,0
2018-11-21T03:13:49.678Z,0
2018-11-21T03:14:50.276Z,0
2018-11-21T03:15:50.869Z,0
2018-11-21T03:16:51.462Z,0
2018-11-21T03:17:52.060Z,0
2018-11-21T03:18:52.643Z,0
2018-11-21T03:19:53.239Z,0
2018-11-21T03:20:53.822Z,0
2018-11-21T03:21:54.408Z,0
2018-11-21T03:22:54.992Z,0
2018-11-21T03:23:55.590Z,0
2018-11-21T03:24:56.180Z,0
2018-11-21T03:25:56.773Z,0
2018-11-21T03:26:57.371Z,0
2018-11-21T03:27:57.974Z,0
2018-11-21T03:28:58.561Z,0
2018-11-21T03:29:59.156Z,0
2018-11-21T03:30:59.749Z,0
2018-11-21T03:32:00.348Z,0
2018-11-21T03:33:00.937Z,0
2018-11-21T03:34:01.534Z,0
2018-11-21T03:35:02.134Z,0
2018-11-21T03:36:02.722Z,0
2018-11-21T03:37:03.320Z,0
2018-11-21T03:38:03.915Z,0
2018-11-21T03:39:04.531Z,0
2018-11-21T03:40:05.113Z,0
2018-11-21T03:41:05.701Z,0
2018-11-21T03:42:06.292Z,0
2018-11-21T03:43:06.894Z,0
2018-11-21T03:44:07.470Z,0
2018-11-21T03:45:08.071Z,0
2018-11-21T03:46:08.662Z,0
2018-11-21T03:47:09.273Z,0
2018-11-21T03:48:09.852Z,0
2018-11-21T03:49:10.436Z,0
2018-11-21T03:50:11.057Z,0
2018-11-21T03:51:11.634Z,0
2018-11-21T03:52:12.226Z,0
2018-11-21T03:53:12.819Z,0
2018-11-21T03:54:13.414Z,0
2018-11-21T03:55:14.003Z,0
2018-11-21T03:56:14.596Z,0
2018-11-21T03:57:15.191Z,0
2018-11-21T03:58:15.783Z,0
2018-11-21T03:59:16.378Z,0
2018-11-21T04:00:16.974Z,0
2018-11-21T04:01:17.562Z,0
2018-11-21T04:02:18.157Z,0
2018-11-21T04:03:18.750Z,0
2018-11-21T04:04:19.337Z,0
2018-11-21T04:05:19.933Z,0
2018-11-21T04:06:20.529Z,0
2018-11-21T04:07:21.119Z,0
2018-11-21T04:08:21.727Z,0
2018-11-21T04:09:22.316Z,0
2018-11-21T04:10:22.907Z,0
2018-11-21T04:11:23.501Z,0
2018-11-21T04:12:24.097Z,0
2018-11-21T04:13:24.692Z,0
2018-11-21T04:14:25.290Z,0
2018-11-21T04:15:25.884Z,0
2018-11-21T04:16:26.473Z,0
2018-11-21T04:17:27.064Z,0
2018-11-21T04:18:27.652Z,0
2018-11-21T04:19:28.238Z,0
2018-11-21T04:20:28.824Z,0
2018-11-21T04:21:29.423Z,0
2018-11-21T04:22:30.017Z,0
2018-11-21T04:23:30.617Z,0
2018-11-21T04:24:31.215Z,0
2018-11-21T04:25:31.798Z,0
2018-11-21T04:26:32.440Z,0
2018-11-21T04:27:33.027Z,0
2018-11-21T04:28:33.619Z,0
2018-11-21T04:29:34.214Z,0
2018-11-21T04:30:34.807Z,0
2018-11-21T04:31:35.396Z,0
2018-11-21T04:32:35.991Z,0
2018-11-21T04:33:36.579Z,0
2018-11-21T04:34:37.184Z,0
2018-11-21T04:35:37.771Z,0
2018-11-21T04:36:38.370Z,0
2018-11-21T04:37:38.963Z,0
2018-11-21T04:38:39.557Z,0
2018-11-21T04:39:40.143Z,0
2018-11-21T04:40:40.739Z,0
2018-11-21T04:41:41.335Z,0
2018-11-21T04:42:41.918Z,0
2018-11-21T04:43:42.504Z,0
2018-11-21T04:44:43.102Z,0
2018-11-21T04:45:43.686Z,0
2018-11-21T04:46:44.274Z,0
2018-11-21T04:47:44.867Z,0
2018-11-21T04:48:45.468Z,0
2018-11-21T04:49:46.063Z,0
2018-11-21T04:50:46.650Z,0
2018-11-21T04:51:47.245Z,0
2018-11-21T04:52:47.833Z,0
2018-11-21T04:53:48.437Z,0
2018-11-21T04:54:49.011Z,0
2018-11-21T04:55:49.619Z,0
2018-11-21T04:56:50.189Z,0
2018-11-21T04:57:50.783Z,0
2018-11-21T04:58:51.370Z,0
2018-11-21T04:59:51.968Z,0
2018-11-21T05:00:52.561Z,0
2018-11-21T05:01:53.161Z,0
2018-11-21T05:02:53.760Z,0
2018-11-21T05:03:54.348Z,0
2018-11-21T05:04:54.940Z,0
2018-11-21T05:05:55.536Z,0
2018-11-21T05:06:56.112Z,0
2018-11-21T05:07:56.712Z,0
2018-11-21T05:08:57.303Z,0
2018-11-21T05:09:57.893Z,0
2018-11-21T05:10:58.494Z,0
2018-11-21T05:11:59.078Z,0
2018-11-21T05:12:59.671Z,0
2018-11-21T05:14:00.274Z,0
2018-11-21T05:15:00.878Z,0
2018-11-21T05:16:01.459Z,0
2018-11-21T05:17:02.054Z,0
2018-11-21T05:18:02.645Z,0
2018-11-21T05:19:03.228Z,0
2018-11-21T05:20:03.841Z,0
2018-11-21T05:21:04.432Z,0
2018-11-21T05:22:05.022Z,0
2018-11-21T05:23:05.655Z,0
2018-11-21T05:24:06.264Z,0
2018-11-21T05:25:06.858Z,0
2018-11-21T05:26:07.453Z,0
2018-11-21T05:27:08.052Z,0
2018-11-21T05:28:08.640Z,0
2018-11-21T05:29:09.234Z,0
2018-11-21T05:30:09.821Z,0
2018-11-21T05:31:10.409Z,0
2018-11-21T05:32:11.007Z,0
2018-11-21T05:33:11.606Z,0
2018-11-21T05:34:12.191Z,0
2018-11-21T05:35:12.787Z,0
2018-11-21T05:36:13.370Z,0
2018-11-21T05:37:13.958Z,0
2018-11-21T05:38:14.553Z,0
2018-11-21T05:39:15.154Z,0
2018-11-21T05:40:15.746Z,0
2018-11-21T05:41:16.331Z,0
2018-11-21T05:42:16.926Z,0
2018-11-21T05:43:17.521Z,0
2018-11-21T05:44:18.114Z,0
2018-11-21T05:45:18.709Z,0
2018-11-21T05:46:19.298Z,0
2018-11-21T05:47:19.887Z,0
2018-11-21T05:48:20.477Z,0
2018-11-21T05:49:21.065Z,0
2018-11-21T05:50:21.655Z,0
2018-11-21T05:51:22.250Z,0
2018-11-21T05:52:22.847Z,0
2018-11-21T05:53:23.439Z,0
2018-11-21T05:54:24.033Z,0
2018-11-21T05:55:24.614Z,0
2018-11-21T05:56:25.214Z,0
2018-11-21T05:57:25.797Z,0
2018-11-21T05:58:26.396Z,0
2018-11-21T05:59:26.997Z,0
2018-11-21T06:00:27.578Z,0
2018-11-21T06:01:28.167Z,0
2018-11-21T06:02:28.761Z,0
2018-11-21T06:03:29.358Z,0
2018-11-21T06:04:29.944Z,0
2018-11-21T06:05:30.543Z,0
2018-11-21T06:06:31.135Z,0
2018-11-21T06:07:31.729Z,0
2018-11-21T06:08:32.315Z,0
2018-11-21T06:09:32.905Z,0
2018-11-21T06:10:33.512Z,0
2018-11-21T06:11:34.076Z,0
2018-11-21T06:12:34.662Z,0
2018-11-21T06:13:35.246Z,0
2018-11-21T06:14:35.851Z,0
2018-11-21T06:15:36.441Z,0
2018-11-21T06:16:37.033Z,0
2018-11-21T06:17:37.622Z,0
2018-11-21T06:18:38.218Z,0
2018-11-21T06:19:38.805Z,0
2018-11-21T06:20:39.394Z,0
2018-11-21T06:21:39.989Z,0
2018-11-21T06:22:40.581Z,4
2018-11-21T06:23:41.183Z,0
2018-11-21T06:24:41.770Z,0
2018-11-21T06:25:42.362Z,4
2018-11-21T06:26:42.960Z,4
2018-11-21T06:27:43.566Z,4
2018-11-21T06:28:44.184Z,8
2018-11-21T06:29:44.742Z,8
2018-11-21T06:30:45.421Z,8
2018-11-21T06:31:45.921Z,8
2018-11-21T06:32:46.510Z,8
2018-11-21T06:33:47.107Z,12
2018-11-21T06:34:47.691Z,12
2018-11-21T06:37:03.765Z,16
2018-11-21T06:38:04.358Z,24
2018-11-21T06:39:04.945Z,28
2018-11-21T06:40:05.553Z,28
2018-11-21T06:41:06.139Z,36
2018-11-21T06:42:06.739Z,40
2018-11-21T06:43:07.331Z,48
2018-11-21T06:44:07.926Z,52
2018-11-21T06:45:08.525Z,64
2018-11-21T06:46:09.120Z,72
2018-11-21T06:47:09.716Z,80
2018-11-21T06:48:10.312Z,92
2018-11-21T06:49:10.908Z,108
2018-11-21T06:50:11.506Z,120
2018-11-21T06:51:12.094Z,136
2018-11-21T06:52:12.692Z,156
2018-11-21T06:53:13.300Z,176
2018-11-21T06:54:13.884Z,192
2018-11-21T06:55:14.481Z,212
2018-11-21T06:56:15.072Z,236
2018-11-21T06:57:15.660Z,256
2018-11-21T06:58:16.249Z,280
2018-11-21T06:59:16.850Z,304
2018-11-21T07:00:17.445Z,328
2018-11-21T07:01:18.041Z,356
2018-11-21T07:02:18.643Z,384
2018-11-21T07:03:19.233Z,420
2018-11-21T07:04:19.832Z,460
2018-11-21T07:05:20.420Z,500
2018-11-21T07:06:21.017Z,540
2018-11-21T07:07:21.621Z,584
2018-11-21T07:08:22.223Z,628
2018-11-21T07:09:22.813Z,676
2018-11-21T07:10:23.405Z,716
2018-11-21T07:11:24.002Z,760
2018-11-21T07:12:24.600Z,812
2018-11-21T07:13:25.201Z,876
2018-11-21T07:14:25.801Z,960
2018-11-21T07:15:26.399Z,1052
2018-11-21T07:16:27.002Z,1132
2018-11-21T07:17:27.597Z,1200
2018-11-21T07:18:28.189Z,1252
2018-11-21T07:19:28.784Z,1288
2018-11-21T07:20:29.379Z,1316
2018-11-21T07:21:29.978Z,1348
2018-11-21T07:22:30.575Z,1388
2018-11-21T07:23:31.223Z,1448
2018-11-21T07:24:31.821Z,1532
2018-11-21T07:25:32.425Z,1620
2018-11-21T07:26:33.019Z,1704
2018-11-21T07:27:33.659Z,1784
2018-11-21T07:28:34.209Z,1844
2018-11-21T07:29:34.856Z,1912
2018-11-21T07:30:35.396Z,1972
2018-11-21T07:31:35.994Z,2020
2018-11-21T07:32:36.597Z,2076
2018-11-21T07:33:37.195Z,2136
2018-11-21T07:34:37.786Z,2220
2018-11-21T07:35:38.383Z,2316
2018-11-21T07:36:38.991Z,2384
2018-11-21T07:37:39.585Z,2424
2018-11-21T07:38:40.175Z,2428
2018-11-21T07:39:40.769Z,2428
2018-11-21T07:40:41.363Z,2456
2018-11-21T07:41:41.964Z,2496
2018-11-21T07:42:42.555Z,2604
2018-11-21T07:43:43.157Z,2676
2018-11-21T07:44:43.751Z,2768
2018-11-21T07:45:44.351Z,2824
2018-11-21T07:46:44.950Z,2972
2018-11-21T07:47:45.546Z,3076
2018-11-21T07:48:46.147Z,3152
2018-11-21T07:49:46.749Z,3196
2018-11-21T07:50:47.344Z,3220
2018-11-21T07:51:47.944Z,3144
2018-11-21T07:52:48.545Z,3136
2018-11-21T07:53:49.148Z,3068
2018-11-21T07:54:49.736Z,3024
2018-11-21T07:55:50.329Z,3008
2018-11-21T07:56:50.921Z,3032
2018-11-21T07:57:51.521Z,3072
2018-11-21T07:58:52.120Z,3060
2018-11-21T07:59:54.507Z,3012
2018-11-21T08:00:53.317Z,2968
2018-11-21T08:01:53.910Z,3008
2018-11-21T08:02:54.511Z,3092
2018-11-21T08:03:55.110Z,3088
2018-11-21T08:04:55.706Z,3164
2018-11-21T08:05:56.306Z,3372
2018-11-21T08:06:56.905Z,3540
2018-11-21T08:07:57.497Z,3756
2018-11-21T08:08:58.102Z,3836
2018-11-21T08:09:59.105Z,3824
2018-11-21T08:10:59.280Z,3664
2018-11-21T08:11:59.880Z,3748
2018-11-21T08:13:00.484Z,4148
2018-11-21T08:14:01.078Z,4432
2018-11-21T08:15:01.678Z,4568
2018-11-21T08:16:02.286Z,4640
2018-11-21T08:17:02.880Z,4828
2018-11-21T08:18:03.481Z,5000
2018-11-21T08:19:04.081Z,5048
2018-11-21T08:20:04.681Z,5080
2018-11-21T08:21:05.281Z,5116
2018-11-21T08:22:05.885Z,5132
2018-11-21T08:23:06.496Z,5248
2018-11-21T08:24:07.078Z,5356
2018-11-21T08:25:07.665Z,5436
2018-11-21T08:26:08.266Z,5340
2018-11-21T08:27:08.873Z,5304
2018-11-21T08:28:09.469Z,5512
2018-11-21T08:29:10.065Z,5472
2018-11-21T08:30:10.666Z,5296
2018-11-21T08:31:11.264Z,5152
2018-11-21T08:32:11.858Z,5288
2018-11-21T08:33:12.456Z,5984
2018-11-21T08:34:13.059Z,6432
2018-11-21T08:35:13.652Z,6760
2018-11-21T08:36:14.258Z,6976
2018-11-21T08:37:14.860Z,7388
2018-11-21T08:38:15.462Z,7628
2018-11-21T08:39:16.057Z,7820
2018-11-21T08:40:16.657Z,8112
2018-11-21T08:41:17.279Z,8500
2018-11-21T08:42:17.859Z,8188
2018-11-21T08:43:18.456Z,7856
2018-11-21T08:44:19.060Z,7684
2018-11-21T08:45:19.659Z,7432
2018-11-21T08:46:20.258Z,6840
2018-11-21T08:47:20.862Z,6428
2018-11-21T08:48:21.463Z,6512
2018-11-21T08:49:22.063Z,6488
2018-11-21T08:50:22.663Z,6412
2018-11-21T08:51:23.274Z,6492
2018-11-21T08:52:23.868Z,6364
2018-11-21T08:53:24.461Z,6436
2018-11-21T08:54:25.065Z,6480
2018-11-21T08:55:25.681Z,6560
2018-11-21T08:56:26.265Z,6676
2018-11-21T08:57:26.867Z,6908
2018-11-21T08:58:27.467Z,7168
2018-11-21T08:59:28.061Z,7624
2018-11-21T09:00:28.677Z,7884
2018-11-21T09:01:29.261Z,8480
2018-11-21T09:02:29.863Z,8704
2018-11-21T09:03:30.475Z,8976
2018-11-21T09:04:31.068Z,9428
2018-11-21T09:05:31.661Z,9708
2018-11-21T09:06:32.264Z,9488
2018-11-21T09:07:32.871Z,9252
2018-11-21T09:08:33.463Z,8956
2018-11-21T09:09:34.066Z,9104
2018-11-21T09:10:46.735Z,9760
2018-11-21T09:11:47.339Z,10796
2018-11-21T09:12:48.088Z,10972
2018-11-21T09:13:48.965Z,11796
2018-11-21T09:14:49.286Z,13844
2018-11-21T09:15:49.890Z,14708
2018-11-21T09:16:50.492Z,14516
2018-11-21T09:17:51.094Z,14628
2018-11-21T09:18:51.691Z,14492
2018-11-21T09:19:52.295Z,12948
2018-11-21T09:20:52.898Z,11552
2018-11-21T09:21:53.500Z,10752
2018-11-21T09:22:54.106Z,10580
2018-11-21T09:23:54.717Z,10920
2018-11-21T09:24:55.323Z,11456
2018-11-21T09:25:55.923Z,12008
2018-11-21T09:26:56.524Z,13660
2018-11-21T09:27:57.124Z,14820
2018-11-21T09:28:57.738Z,15044
2018-11-21T09:29:58.332Z,14872
2018-11-21T09:30:58.930Z,14224
2018-11-21T09:31:59.528Z,13120
2018-11-21T09:33:00.135Z,11596
2018-11-21T09:34:00.736Z,11720
2018-11-21T09:35:01.338Z,11148
2018-11-21T09:36:01.961Z,10908
2018-11-21T09:37:02.567Z,11672
2018-11-21T09:38:03.186Z,12352
2018-11-21T09:39:03.806Z,12088
2018-11-21T09:40:04.408Z,10832
2018-11-21T09:41:05.009Z,11160
2018-11-21T09:42:05.617Z,10016
2018-11-21T09:43:06.237Z,10312
2018-11-21T09:44:06.823Z,8788
2018-11-21T09:45:07.427Z,8640
2018-11-21T09:46:08.034Z,13144
2018-11-21T09:47:08.631Z,9764
2018-11-21T09:48:09.233Z,10544
2018-11-21T09:49:09.866Z,9116
2018-11-21T09:50:10.432Z,10532
2018-11-21T09:51:11.050Z,12060
2018-11-21T09:52:11.639Z,13300
2018-11-21T09:53:12.246Z,11940
2018-11-21T09:54:12.849Z,14240
2018-11-21T09:55:13.459Z,12680
2018-11-21T09:56:14.060Z,12040
2018-11-21T09:57:14.663Z,10168
2018-11-21T09:58:15.267Z,9028
2018-11-21T09:59:15.886Z,10792
2018-11-21T10:00:16.476Z,14916
2018-11-21T10:01:17.079Z,16044
2018-11-21T10:02:17.684Z,17604
2018-11-21T10:03:18.287Z,18336
2018-11-21T10:04:18.891Z,18368
2018-11-21T10:05:19.491Z,15848
2018-11-21T10:06:20.129Z,15384
2018-11-21T10:07:20.706Z,14644
2018-11-21T10:08:21.315Z,13872
2018-11-21T10:09:21.917Z,12684
2018-11-21T10:10:22.521Z,14436
2018-11-21T10:11:23.120Z,14584
2018-11-21T10:12:23.727Z,13636
2018-11-21T10:13:24.332Z,11980
2018-11-21T10:14:24.934Z,11580
2018-11-21T10:15:25.540Z,10548
2018-11-21T10:16:26.141Z,11132
2018-11-21T10:17:26.752Z,12240
2018-11-21T10:18:27.350Z,12896
2018-11-21T10:19:27.957Z,12940
2018-11-21T10:20:28.568Z,12648
2018-11-21T10:21:29.173Z,10384
2018-11-21T10:22:29.778Z,9608
2018-11-21T10:23:30.382Z,9412
2018-11-21T10:24:30.984Z,9800
2018-11-21T10:25:31.586Z,9844
2018-11-21T10:26:32.190Z,9700
2018-11-21T10:27:32.783Z,9596
2018-11-21T10:28:33.426Z,9780
2018-11-21T10:29:34.032Z,10608
2018-11-21T10:30:35.389Z,11448
2018-11-21T10:31:35.998Z,11820
2018-11-21T10:32:36.591Z,11832
2018-11-21T10:33:37.196Z,11208
2018-11-21T10:34:37.810Z,10852
2018-11-21T10:35:38.400Z,10208
2018-11-21T10:36:39.009Z,10036
2018-11-21T10:37:39.612Z,9784
2018-11-21T10:38:40.216Z,9564
2018-11-21T10:39:40.809Z,9392
2018-11-21T10:40:41.412Z,9396
2018-11-21T10:41:42.014Z,9392
2018-11-21T10:42:42.620Z,9280
2018-11-21T10:43:43.220Z,9192
2018-11-21T10:44:43.829Z,9128
2018-11-21T10:45:44.427Z,9244
2018-11-21T10:46:45.032Z,9504
2018-11-21T10:47:45.632Z,9944
2018-11-21T10:48:46.284Z,10608
2018-11-21T10:49:46.887Z,10864
2018-11-21T10:50:47.487Z,11204
2018-11-21T10:51:48.088Z,11352
2018-11-21T10:52:48.686Z,11516
2018-11-21T10:53:49.282Z,11808
2018-11-21T10:54:49.889Z,12060
2018-11-21T10:55:50.496Z,12324
2018-11-21T10:56:51.095Z,12548
2018-11-21T10:57:51.697Z,12732
2018-11-21T10:58:52.307Z,12784
2018-11-21T10:59:52.905Z,12644
2018-11-21T11:00:53.561Z,12388
2018-11-21T11:01:54.166Z,12028
2018-11-21T11:02:54.773Z,11684
2018-11-21T11:03:55.378Z,11364
2018-11-21T11:04:55.998Z,11108
2018-11-21T11:05:56.584Z,10940
2018-11-21T11:06:57.189Z,10868
2018-11-21T11:07:57.791Z,11056
2018-11-21T11:08:58.400Z,11600
2018-11-21T11:10:00.148Z,12496
2018-11-21T11:10:59.600Z,13336
2018-11-21T11:12:00.209Z,14180
2018-11-21T11:13:00.806Z,15028
2018-11-21T11:14:01.407Z,16048
2018-11-21T11:15:02.009Z,17144
2018-11-21T11:16:02.605Z,18176
2018-11-21T11:17:03.210Z,19136
2018-11-21T11:18:03.812Z,19168
2018-11-21T11:19:04.419Z,19008
2018-11-21T11:20:08.574Z,19008
2018-11-21T11:21:05.625Z,18480
2018-11-21T11:22:06.233Z,18564
2018-11-21T11:23:06.827Z,19040
2018-11-21T11:24:07.420Z,18428
2018-11-21T11:25:08.029Z,18416
2018-11-21T11:26:08.629Z,18680
2018-11-21T11:27:09.247Z,18352
2018-11-21T11:28:10.322Z,18644
2018-11-21T11:29:10.442Z,18604
2018-11-21T11:30:11.044Z,17752
2018-11-21T11:31:11.643Z,18048
2018-11-21T11:32:12.247Z,18384
2018-11-21T11:33:12.845Z,18752
2018-11-21T11:34:13.451Z,19360
2018-11-21T11:35:14.050Z,17712
2018-11-21T11:36:14.658Z,16200
2018-11-21T11:37:15.262Z,15424
2018-11-21T11:38:15.867Z,14688
2018-11-21T11:39:16.469Z,13376
2018-11-21T11:40:17.072Z,12908
2018-11-21T11:41:17.677Z,12768
2018-11-21T11:42:18.276Z,12344
2018-11-21T11:43:18.872Z,12248
2018-11-21T11:44:19.477Z,12312
2018-11-21T11:45:20.079Z,12828
2018-11-21T11:46:20.673Z,13400
2018-11-21T11:47:21.267Z,13676
2018-11-21T11:48:21.864Z,13844
2018-11-21T11:49:22.474Z,14024
2018-11-21T11:50:23.077Z,14192
2018-11-21T11:51:23.674Z,14740
2018-11-21T11:52:24.281Z,14492
2018-11-21T11:54:09.549Z,14132
2018-11-21T11:55:10.628Z,14460
2018-11-21T11:56:11.452Z,15248
2018-11-21T11:57:12.050Z,16036
2018-11-21T11:58:12.658Z,15620
2018-11-21T11:59:13.258Z,14920
2018-11-21T12:00:13.855Z,14252
2018-11-21T12:01:14.455Z,13980
2018-11-21T12:02:15.058Z,13612
2018-11-21T12:03:15.709Z,12996
2018-11-21T12:04:16.358Z,12572
2018-11-21T12:05:16.941Z,12580
2018-11-21T12:06:17.535Z,12696
2018-11-21T12:07:18.134Z,12868
2018-11-21T12:08:18.736Z,13432
2018-11-21T12:09:19.347Z,15276
2018-11-21T12:10:19.949Z,16788
2018-11-21T12:11:20.540Z,16636
2018-11-21T12:12:21.147Z,16880
2018-11-21T12:13:21.749Z,19136
2018-11-21T12:14:22.360Z,17028
2018-11-21T12:15:22.952Z,15704
2018-11-21T12:16:23.553Z,15800
2018-11-21T12:17:24.161Z,15016
2018-11-21T12:18:24.760Z,14048
2018-11-21T12:19:25.372Z,13424
2018-11-21T12:20:25.981Z,12628
2018-11-21T12:21:26.587Z,11896
2018-11-21T12:22:27.181Z,11324
2018-11-21T12:23:27.790Z,10696
2018-11-21T12:24:28.409Z,10148
2018-11-21T12:25:29.004Z,9732
2018-11-21T12:26:29.610Z,9452
2018-11-21T12:27:30.214Z,9192
2018-11-21T12:28:30.813Z,8920
2018-11-21T12:29:31.410Z,8628
2018-11-21T12:30:32.016Z,8348
2018-11-21T12:31:32.611Z,8160
2018-11-21T12:32:33.445Z,8048
2018-11-21T12:33:33.803Z,7972
2018-11-21T12:34:34.398Z,7908
2018-11-21T12:35:35.001Z,7852
2018-11-21T12:36:35.595Z,7856
2018-11-21T12:37:36.196Z,7932
2018-11-21T12:38:36.799Z,8056
2018-11-21T12:39:37.392Z,8264
2018-11-21T12:40:37.996Z,8544
2018-11-21T12:41:38.597Z,8892
2018-11-21T12:42:39.202Z,9264
2018-11-21T12:43:39.804Z,9660
2018-11-21T12:44:40.404Z,10108
2018-11-21T12:45:41.003Z,10572
2018-11-21T12:46:41.603Z,10904
2018-11-21T12:47:42.200Z,11140
2018-11-21T12:48:42.800Z,11412
2018-11-21T12:49:43.404Z,11652
2018-11-21T12:50:44.006Z,11800
2018-11-21T12:51:44.608Z,11828
2018-11-21T12:52:45.215Z,11780
2018-11-21T12:53:45.815Z,11724
2018-11-21T12:54:46.417Z,11736
2018-11-21T12:55:47.370Z,11728
2018-11-21T12:56:47.972Z,11696
2018-11-21T12:57:48.576Z,11640
2018-11-21T12:58:49.180Z,11508
2018-11-21T12:59:49.781Z,11308
2018-11-21T13:00:50.382Z,11080
2018-11-21T13:01:50.984Z,10860
2018-11-21T13:02:51.586Z,10820
2018-11-21T13:03:52.196Z,10952
2018-11-21T13:04:52.797Z,11192
2018-11-21T13:05:53.399Z,11348
2018-11-21T13:06:54.013Z,11464
2018-11-21T13:07:54.602Z,11620
2018-11-21T13:08:55.200Z,11700
2018-11-21T13:09:56.844Z,11684
2018-11-21T13:10:56.411Z,11584
2018-11-21T13:11:57.010Z,11352
2018-11-21T13:12:57.642Z,10992
2018-11-21T13:13:58.259Z,10836
2018-11-21T13:14:58.855Z,10820
2018-11-21T13:15:59.478Z,10668
2018-11-21T13:17:00.060Z,10444
2018-11-21T13:18:00.655Z,10116
2018-11-21T13:19:01.260Z,9756
2018-11-21T13:20:01.863Z,9444
2018-11-21T13:21:02.465Z,9336
2018-11-21T13:22:03.074Z,9264
2018-11-21T13:23:03.671Z,9288
2018-11-21T13:24:04.277Z,9336
2018-11-21T13:25:04.879Z,9100
2018-11-21T13:26:05.479Z,8548
2018-11-21T13:27:06.071Z,8208
2018-11-21T13:28:06.672Z,7948
2018-11-21T13:29:07.277Z,7944
2018-11-21T13:30:07.875Z,8028
2018-11-21T13:31:08.479Z,8000
2018-11-21T13:32:09.082Z,7872
2018-11-21T13:33:09.674Z,7660
2018-11-21T13:34:10.263Z,7596
2018-11-21T13:35:10.863Z,7540
2018-11-21T13:36:11.466Z,7520
2018-11-21T13:37:12.067Z,7488
2018-11-21T13:38:12.671Z,7420
2018-11-21T13:39:13.272Z,7328
2018-11-21T13:40:13.872Z,7240
2018-11-21T13:41:14.478Z,7200
2018-11-21T13:42:15.067Z,7236
2018-11-21T13:43:15.674Z,7324
2018-11-21T13:44:16.265Z,7424
2018-11-21T13:45:16.867Z,7512
2018-11-21T13:46:17.471Z,7548
2018-11-21T13:47:18.131Z,7540
2018-11-21T13:48:18.684Z,7500
2018-11-21T13:49:19.270Z,7444
2018-11-21T13:50:19.997Z,7352
2018-11-21T13:51:20.508Z,7192
2018-11-21T13:52:21.116Z,7000
2018-11-21T13:53:21.713Z,6792
2018-11-21T13:54:22.311Z,6576
2018-11-21T13:55:22.917Z,6340
2018-11-21T13:56:23.521Z,6096
2018-11-21T13:57:24.114Z,5888
2018-11-21T13:58:24.712Z,5712
2018-11-21T13:59:25.318Z,5552
2018-11-21T14:00:25.917Z,5468
2018-11-21T14:01:26.519Z,5332
2018-11-21T14:02:27.113Z,5176
2018-11-21T14:03:27.733Z,5084